createdAt,value
2018-07-17T00:02:02.158Z,15.90
2018-07-17T00:04:30.359Z,15.80
2018-07-17T00:06:58.526Z,15.80
2018-07-17T00:09:26.702Z,15.80
2018-07-17T00:11:54.881Z,15.60
2018-07-17T00:14:23.297Z,15.50
2018-07-17T00:16:51.717Z,15.40
2018-07-17T00:19:19.935Z,15.20
2018-07-17T00:21:48.154Z,15.00
2018-07-17T00:26:44.304Z,14.90
2018-07-17T00:29:13.229Z,14.90
2018-07-17T00:31:41.428Z,14.90
2018-07-17T00:34:09.622Z,15.00
2018-07-17T00:36:37.791Z,15.10
2018-07-17T00:39:06.878Z,15.10
2018-07-17T00:41:35.058Z,15.10
2018-07-17T00:44:03.249Z,15.00
2018-07-17T00:46:31.417Z,15.00
2018-07-17T00:49:00.390Z,14.90
2018-07-17T00:51:28.542Z,15.00
2018-07-17T00:53:56.746Z,15.00
2018-07-17T00:56:24.926Z,15.00
2018-07-17T00:58:53.592Z,14.90
2018-07-17T01:01:27.238Z,14.90
2018-07-17T01:04:00.810Z,14.80
2018-07-17T01:06:34.569Z,14.70
2018-07-17T01:09:08.234Z,14.60
2018-07-17T01:11:44.041Z,14.50
2018-07-17T01:14:16.329Z,14.40
2018-07-17T01:16:44.565Z,14.20
2018-07-17T01:19:13.080Z,14.20
2018-07-17T01:21:41.273Z,14.00
2018-07-17T01:24:09.553Z,14.00
2018-07-17T01:26:37.719Z,13.90
2018-07-17T01:29:06.015Z,13.90
2018-07-17T01:31:34.153Z,13.80
2018-07-17T01:34:02.297Z,13.70
2018-07-17T01:36:30.522Z,13.70
2018-07-17T01:38:58.743Z,13.60
2018-07-17T01:41:26.989Z,13.60
2018-07-17T01:43:55.157Z,13.60
2018-07-17T01:46:24.204Z,13.60
2018-07-17T01:48:57.338Z,13.60
2018-07-17T01:51:25.515Z,13.60
2018-07-17T01:53:53.705Z,13.60
2018-07-17T01:56:21.906Z,13.60
2018-07-17T01:58:50.097Z,13.60
2018-07-17T02:01:18.289Z,13.60
2018-07-17T02:03:46.454Z,13.50
2018-07-17T02:06:14.610Z,13.60
2018-07-17T02:08:42.825Z,13.50
2018-07-17T02:11:11.072Z,13.50
2018-07-17T02:13:39.239Z,13.50
2018-07-17T02:16:07.415Z,13.40
2018-07-17T02:18:35.578Z,13.40
2018-07-17T02:21:04.077Z,13.40
2018-07-17T02:23:34.149Z,13.40
2018-07-17T02:26:02.377Z,13.40
2018-07-17T02:28:30.497Z,13.40
2018-07-17T02:30:58.695Z,13.50
2018-07-17T02:33:26.889Z,13.60
2018-07-17T02:35:55.069Z,13.70
2018-07-17T02:38:24.214Z,13.70
2018-07-17T02:43:20.357Z,14.00
2018-07-17T02:45:48.628Z,14.00
2018-07-17T02:48:16.787Z,14.00
2018-07-17T02:50:45.367Z,14.00
2018-07-17T02:53:13.535Z,13.90
2018-07-17T02:55:41.782Z,13.80
2018-07-17T02:58:09.962Z,13.70
2018-07-17T03:00:38.326Z,13.60
2018-07-17T03:03:06.635Z,13.40
2018-07-17T03:05:34.810Z,13.40
2018-07-17T03:08:03.048Z,13.20
2018-07-17T03:10:31.256Z,13.10
2018-07-17T03:12:59.406Z,13.00
2018-07-17T03:15:27.598Z,13.00
2018-07-17T03:17:55.806Z,12.90
2018-07-17T03:20:23.998Z,12.80
2018-07-17T03:22:52.502Z,12.80
2018-07-17T03:25:20.710Z,12.80
2018-07-17T03:27:48.879Z,12.70
2018-07-17T03:30:17.814Z,12.70
2018-07-17T03:32:46.034Z,12.70
2018-07-17T03:35:14.933Z,12.70
2018-07-17T03:37:43.081Z,12.80
2018-07-17T03:40:11.834Z,12.80
2018-07-17T03:42:40.023Z,12.80
2018-07-17T03:45:08.326Z,12.80
2018-07-17T03:47:36.526Z,12.80
2018-07-17T03:50:04.763Z,12.80
2018-07-17T03:52:32.937Z,12.80
2018-07-17T03:55:02.065Z,12.80
2018-07-17T03:57:30.276Z,12.80
2018-07-17T03:59:58.445Z,12.80
2018-07-17T04:02:26.734Z,12.80
2018-07-17T04:04:54.960Z,12.80
2018-07-17T04:07:23.146Z,12.70
2018-07-17T04:09:51.367Z,12.70
2018-07-17T04:12:19.520Z,12.70
2018-07-17T04:14:47.770Z,12.70
2018-07-17T04:17:15.924Z,12.70
2018-07-17T04:19:44.733Z,12.80
2018-07-17T04:22:12.910Z,12.80
2018-07-17T04:24:41.159Z,12.90
2018-07-17T04:27:09.341Z,13.00
2018-07-17T04:29:37.521Z,13.10
2018-07-17T04:32:05.838Z,13.30
2018-07-17T04:37:01.959Z,13.50
2018-07-17T04:39:30.851Z,13.60
2018-07-17T04:41:59.038Z,13.80
2018-07-17T04:44:27.528Z,13.90
2018-07-17T04:46:55.733Z,14.10
2018-07-17T04:49:23.985Z,14.90
2018-07-17T04:51:52.179Z,15.70
2018-07-17T04:54:20.459Z,16.70
2018-07-17T04:56:48.642Z,17.50
2018-07-17T04:59:16.910Z,18.10
2018-07-17T05:01:45.373Z,19.10
2018-07-17T05:04:13.569Z,20.20
2018-07-17T05:06:41.783Z,21.40
2018-07-17T05:09:10.683Z,22.30
2018-07-17T05:11:38.918Z,23.00
2018-07-17T05:14:07.810Z,23.50
2018-07-17T05:16:36.037Z,23.90
2018-07-17T05:19:05.121Z,24.30
2018-07-17T05:21:33.293Z,24.60
2018-07-17T05:24:01.499Z,25.00
2018-07-17T05:26:30.033Z,25.80
2018-07-17T05:28:58.546Z,26.70
2018-07-17T05:31:26.706Z,27.00
2018-07-17T05:33:54.883Z,27.30
2018-07-17T05:36:23.048Z,27.70
2018-07-17T05:38:51.277Z,28.20
2018-07-17T05:41:19.418Z,28.30
2018-07-17T05:43:47.646Z,28.40
2018-07-17T05:46:15.841Z,28.50
2018-07-17T05:48:44.118Z,28.40
2018-07-17T05:51:12.284Z,28.50
2018-07-17T05:53:40.415Z,28.80
2018-07-17T05:56:08.637Z,29.20
2018-07-17T05:58:36.825Z,29.20
2018-07-17T06:01:05.013Z,28.80
2018-07-17T06:03:33.202Z,27.90
2018-07-17T06:06:01.407Z,28.00
2018-07-17T06:08:29.630Z,28.30
2018-07-17T06:18:21.694Z,28.60
2018-07-17T06:20:49.872Z,28.40
2018-07-17T06:23:18.146Z,28.70
2018-07-17T06:25:46.702Z,28.90
2018-07-17T06:28:14.885Z,28.90
2018-07-17T06:30:43.043Z,29.30
2018-07-17T06:33:11.276Z,29.90
2018-07-17T06:35:39.484Z,30.40
2018-07-17T06:38:07.806Z,30.80
2018-07-17T06:40:36.101Z,30.80
2018-07-17T06:43:04.265Z,31.20
2018-07-17T06:45:33.185Z,30.90
2018-07-17T06:48:01.380Z,29.90
2018-07-17T06:50:29.625Z,29.90
2018-07-17T06:52:58.287Z,30.20
2018-07-17T06:55:26.485Z,30.60
2018-07-17T06:57:55.703Z,31.10
2018-07-17T07:00:23.874Z,31.70
2018-07-17T07:02:52.018Z,31.70
2018-07-17T07:05:20.230Z,31.60
2018-07-17T07:07:48.381Z,31.50
2018-07-17T07:10:16.583Z,30.90
2018-07-17T07:12:44.757Z,31.20
2018-07-17T07:15:12.949Z,31.40
2018-07-17T07:17:41.190Z,31.60
2018-07-17T07:20:09.382Z,31.50
2018-07-17T07:22:37.558Z,31.90
2018-07-17T07:25:06.058Z,32.50
2018-07-17T07:27:34.233Z,32.20
2018-07-17T07:30:02.418Z,31.50
2018-07-17T07:32:30.554Z,31.00
2018-07-17T07:34:58.969Z,30.90
2018-07-17T07:37:27.215Z,31.30
2018-07-17T07:39:55.353Z,31.20
2018-07-17T07:42:23.603Z,30.90
2018-07-17T07:44:51.790Z,30.90
2018-07-17T07:47:21.458Z,31.30
2018-07-17T07:49:49.675Z,32.00
2018-07-17T07:52:18.431Z,31.60
2018-07-17T07:54:46.604Z,31.30
2018-07-17T07:57:14.774Z,31.10
2018-07-17T07:59:43.845Z,31.00
2018-07-17T08:02:12.263Z,31.70
2018-07-17T08:04:40.443Z,31.50
2018-07-17T08:07:08.620Z,31.60
2018-07-17T08:09:36.818Z,32.10
2018-07-17T08:12:05.034Z,32.10
2018-07-17T08:14:33.584Z,31.70
2018-07-17T08:17:01.786Z,31.40
2018-07-17T08:19:29.974Z,31.40
2018-07-17T08:21:58.261Z,31.60
2018-07-17T08:24:26.516Z,31.50
2018-07-17T08:26:54.706Z,32.30
2018-07-17T08:29:23.481Z,33.20
2018-07-17T08:31:52.042Z,33.40
2018-07-17T08:34:20.241Z,33.10
2018-07-17T08:36:48.405Z,33.10
2018-07-17T08:39:16.635Z,33.30
2018-07-17T08:41:44.778Z,33.40
2018-07-17T08:44:13.074Z,33.70
2018-07-17T08:46:41.258Z,33.20
2018-07-17T08:49:09.441Z,33.40
2018-07-17T08:51:37.677Z,33.90
2018-07-17T08:54:06.613Z,34.10
2018-07-17T08:56:34.801Z,34.00
2018-07-17T08:59:02.991Z,34.10
2018-07-17T09:01:31.833Z,34.00
2018-07-17T09:04:00.032Z,34.00
2018-07-17T09:06:29.176Z,33.10
2018-07-17T09:08:57.349Z,33.20
2018-07-17T09:11:25.540Z,33.20
2018-07-17T09:13:53.727Z,33.40
2018-07-17T09:16:22.426Z,32.80
2018-07-17T09:18:50.705Z,32.50
2018-07-17T09:21:19.719Z,32.10
2018-07-17T09:23:48.477Z,33.00
2018-07-17T09:26:16.649Z,33.90
2018-07-17T09:28:45.438Z,34.70
2018-07-17T09:31:13.614Z,35.00
2018-07-17T09:33:41.842Z,35.20
2018-07-17T09:36:09.982Z,34.90
2018-07-17T09:38:38.190Z,34.90
2018-07-17T09:41:06.358Z,34.30
2018-07-17T09:43:34.557Z,34.00
2018-07-17T09:46:02.705Z,34.00
2018-07-17T09:48:30.902Z,34.20
2018-07-17T09:50:59.109Z,35.00
2018-07-17T09:53:27.381Z,35.60
2018-07-17T09:55:55.573Z,34.90
2018-07-17T09:58:24.309Z,35.10
2018-07-17T10:00:58.087Z,35.60
2018-07-17T10:03:26.251Z,35.90
2018-07-17T10:05:54.452Z,36.40
2018-07-17T10:08:22.650Z,36.60
2018-07-17T10:10:50.883Z,36.50
2018-07-17T10:13:19.058Z,36.40
2018-07-17T10:15:47.301Z,35.70
2018-07-17T10:18:15.525Z,36.40
2018-07-17T10:20:43.714Z,36.40
2018-07-17T10:23:11.971Z,36.80
2018-07-17T10:25:40.194Z,36.40
2018-07-17T10:28:08.353Z,36.80
2018-07-17T10:30:37.313Z,36.90
2018-07-17T10:33:05.499Z,37.00
2018-07-17T10:35:33.906Z,37.30
2018-07-17T10:38:02.085Z,37.50
2018-07-17T10:40:30.250Z,37.50
2018-07-17T10:42:58.466Z,37.90
2018-07-17T10:45:26.675Z,37.70
2018-07-17T10:47:55.102Z,37.00
2018-07-17T10:50:23.301Z,36.30
2018-07-17T10:52:51.514Z,35.60
2018-07-17T10:55:20.447Z,35.00
2018-07-17T10:57:48.634Z,35.00
2018-07-17T11:00:16.975Z,35.40
2018-07-17T11:02:45.162Z,35.70
2018-07-17T11:05:13.347Z,35.80
2018-07-17T11:07:41.721Z,34.80
2018-07-17T11:10:09.896Z,35.20
2018-07-17T11:12:38.311Z,35.70
2018-07-17T11:15:06.511Z,36.50
2018-07-17T11:17:34.690Z,36.50
2018-07-17T11:20:02.857Z,36.20
2018-07-17T11:22:32.453Z,36.20
2018-07-17T11:25:00.665Z,36.00
2018-07-17T11:27:30.529Z,36.00
2018-07-17T11:29:59.384Z,35.80
2018-07-17T11:32:27.783Z,36.10
2018-07-17T11:34:56.002Z,35.70
2018-07-17T11:37:24.181Z,35.60
2018-07-17T11:39:52.429Z,35.90
2018-07-17T11:42:22.538Z,36.00
2018-07-17T11:44:50.749Z,36.60
2018-07-17T11:47:18.918Z,36.20
2018-07-17T11:49:47.237Z,36.90
2018-07-17T11:52:15.642Z,36.50
2018-07-17T11:54:43.839Z,36.50
2018-07-17T11:57:12.367Z,37.10
2018-07-17T11:59:40.660Z,37.80
2018-07-17T12:02:08.752Z,37.70
2018-07-17T12:04:36.974Z,37.40
2018-07-17T12:07:07.768Z,36.30
2018-07-17T12:09:37.065Z,35.40
2018-07-17T12:12:05.472Z,35.30
2018-07-17T12:14:33.697Z,35.80
2018-07-17T12:17:03.646Z,36.70
2018-07-17T12:19:31.897Z,36.70
2018-07-17T12:22:00.155Z,36.00
2018-07-17T12:24:28.309Z,35.10
2018-07-17T12:26:56.574Z,34.60
2018-07-17T12:29:24.914Z,34.70
2018-07-17T12:31:53.164Z,34.70
2018-07-17T12:34:21.413Z,35.00
2018-07-17T12:36:49.692Z,34.90
2018-07-17T12:39:17.870Z,34.90
2018-07-17T12:41:46.053Z,35.40
2018-07-17T12:46:42.425Z,36.10
2018-07-17T12:49:10.750Z,35.60
2018-07-17T12:51:38.898Z,35.20
2018-07-17T12:54:07.077Z,34.90
2018-07-17T12:56:35.275Z,34.40
2018-07-17T12:59:03.536Z,34.10
2018-07-17T13:01:31.727Z,33.90
2018-07-17T13:03:59.930Z,33.70
2018-07-17T13:06:28.161Z,34.00
2018-07-17T13:08:56.337Z,34.30
2018-07-17T13:11:24.557Z,34.40
2018-07-17T13:13:52.732Z,34.30
2018-07-17T13:16:20.911Z,33.80
2018-07-17T13:18:49.114Z,33.50
2018-07-17T13:21:17.294Z,33.40
2018-07-17T13:23:45.474Z,33.70
2018-07-17T13:26:13.691Z,33.90
2018-07-17T13:28:41.910Z,34.40
2018-07-17T13:31:10.122Z,34.50
2018-07-17T13:33:38.298Z,34.20
2018-07-17T13:36:07.327Z,33.30
2018-07-17T13:38:35.549Z,32.50
2018-07-17T13:41:03.738Z,31.90
2018-07-17T13:43:31.945Z,31.70
2018-07-17T13:46:00.062Z,32.20
2018-07-17T13:48:28.286Z,33.10
2018-07-17T13:50:56.753Z,33.70
2018-07-17T13:53:25.382Z,34.00
2018-07-17T13:55:53.570Z,34.10
2018-07-17T13:58:21.789Z,34.00
2018-07-17T14:00:50.074Z,34.10
2018-07-17T14:03:18.277Z,34.20
2018-07-17T14:05:46.450Z,34.80
2018-07-17T14:08:14.682Z,35.20
2018-07-17T14:10:42.894Z,35.30
2018-07-17T14:13:11.082Z,35.10
2018-07-17T14:15:39.305Z,35.20
2018-07-17T14:18:07.458Z,35.50
2018-07-17T14:20:35.658Z,35.90
2018-07-17T14:23:03.820Z,36.80
2018-07-17T14:25:32.022Z,37.20
2018-07-17T14:28:00.194Z,37.30
2018-07-17T14:30:28.377Z,37.60
2018-07-17T14:32:56.582Z,37.70
2018-07-17T14:35:24.776Z,37.90
2018-07-17T14:37:52.957Z,38.50
2018-07-17T14:40:21.134Z,38.10
2018-07-17T14:42:49.314Z,38.30
2018-07-17T14:45:17.819Z,37.70
2018-07-17T14:50:14.155Z,34.80
2018-07-17T14:52:43.406Z,33.80
2018-07-17T14:55:12.717Z,32.80
2018-07-17T14:57:41.227Z,32.70
2018-07-17T15:00:10.488Z,32.20
2018-07-17T15:02:38.689Z,32.00
2018-07-17T15:05:07.106Z,31.80
2018-07-17T15:07:35.348Z,31.40
2018-07-17T15:10:03.770Z,31.30
2018-07-17T15:12:31.978Z,30.80
2018-07-17T15:15:00.207Z,30.70
2018-07-17T15:17:28.668Z,31.20
2018-07-17T15:19:56.912Z,31.20
2018-07-17T15:22:25.086Z,30.80
2018-07-17T15:24:55.149Z,30.40
2018-07-17T15:27:23.475Z,30.20
2018-07-17T15:29:52.513Z,30.10
2018-07-17T15:32:21.158Z,30.20
2018-07-17T15:34:49.372Z,31.20
2018-07-17T15:37:17.910Z,32.10
2018-07-17T15:39:46.093Z,32.40
2018-07-17T15:42:14.485Z,32.60
2018-07-17T15:44:42.658Z,32.80
2018-07-17T15:47:10.963Z,32.90
2018-07-17T15:49:39.195Z,32.90
2018-07-17T15:52:07.377Z,32.80
2018-07-17T15:54:35.664Z,32.30
2018-07-17T15:57:03.905Z,32.50
2018-07-17T15:59:32.074Z,32.20
2018-07-17T16:02:00.294Z,32.30
2018-07-17T16:04:28.910Z,32.20
2018-07-17T16:06:57.055Z,31.70
2018-07-17T16:09:25.259Z,31.70
2018-07-17T16:11:53.453Z,32.10
2018-07-17T16:16:49.623Z,32.10
2018-07-17T16:19:19.639Z,32.50
2018-07-17T16:21:47.822Z,32.60
2018-07-17T16:24:16.015Z,32.60
2018-07-17T16:26:44.359Z,32.80
2018-07-17T16:29:13.150Z,33.20
2018-07-17T16:31:41.421Z,33.40
2018-07-17T16:34:09.715Z,33.20
2018-07-17T16:36:37.925Z,33.20
2018-07-17T16:39:06.869Z,33.30
2018-07-17T16:41:35.115Z,33.00
2018-07-17T16:46:31.954Z,32.60
2018-07-17T16:49:01.030Z,32.60
2018-07-17T16:51:29.277Z,32.80
2018-07-17T16:53:57.919Z,33.10
2018-07-17T16:56:26.378Z,33.00
2018-07-17T16:58:54.564Z,33.40
2018-07-17T17:01:23.359Z,33.20
2018-07-17T17:03:52.537Z,33.00
2018-07-17T17:06:21.021Z,32.50
2018-07-17T17:08:49.179Z,32.00
2018-07-17T17:11:17.419Z,31.30
2018-07-17T17:13:45.692Z,30.70
2018-07-17T17:16:13.911Z,30.30
2018-07-17T17:18:42.174Z,29.90
2018-07-17T17:21:10.457Z,29.50
2018-07-17T17:23:38.695Z,29.10
2018-07-17T17:26:06.870Z,29.10
2018-07-17T17:28:35.113Z,29.10
2018-07-17T17:31:03.358Z,29.00
2018-07-17T17:33:31.561Z,28.80
2018-07-17T17:35:59.735Z,28.70
2018-07-17T17:38:27.873Z,28.50
2018-07-17T17:40:56.077Z,28.40
2018-07-17T17:43:24.272Z,28.20
2018-07-17T17:45:52.504Z,27.90
2018-07-17T17:48:21.273Z,27.90
2018-07-17T17:50:49.652Z,27.70
2018-07-17T17:53:17.830Z,27.50
2018-07-17T17:55:46.003Z,27.50
2018-07-17T17:58:14.312Z,27.40
2018-07-17T18:00:42.556Z,27.30
2018-07-17T18:03:11.081Z,27.20
2018-07-17T18:05:40.043Z,27.10
2018-07-17T18:08:08.282Z,27.00
2018-07-17T18:10:36.455Z,26.90
2018-07-17T18:13:04.941Z,26.70
2018-07-17T18:15:33.105Z,26.60
2018-07-17T18:18:01.645Z,26.50
2018-07-17T18:20:29.821Z,26.40
2018-07-17T18:22:58.018Z,26.30
2018-07-17T18:25:26.289Z,26.20
2018-07-17T18:27:54.525Z,26.10
2018-07-17T18:30:22.892Z,26.00
2018-07-17T18:32:51.198Z,25.90
2018-07-17T18:35:19.501Z,25.80
2018-07-17T18:37:47.699Z,25.70
2018-07-17T18:40:15.913Z,25.60
2018-07-17T18:42:44.140Z,25.40
2018-07-17T18:45:12.306Z,25.30
2018-07-17T18:47:40.528Z,25.20
2018-07-17T18:50:12.864Z,25.10
2018-07-17T18:52:36.833Z,25.00
2018-07-17T18:55:04.981Z,24.80
2018-07-17T18:57:33.181Z,24.60
2018-07-17T19:00:01.402Z,24.50
2018-07-17T19:02:29.575Z,24.40
2018-07-17T19:04:57.771Z,24.20
2018-07-17T19:07:25.947Z,24.00
2018-07-17T19:09:54.118Z,23.80
2018-07-17T19:12:22.324Z,23.60
2018-07-17T19:14:51.471Z,23.40
2018-07-17T19:17:19.642Z,23.20
2018-07-17T19:19:47.931Z,22.90
2018-07-17T19:22:17.724Z,22.60
2018-07-17T19:24:46.322Z,22.40
2018-07-17T19:27:14.482Z,22.20
2018-07-17T19:29:43.183Z,22.00
2018-07-17T19:32:11.785Z,21.80
2018-07-17T19:34:39.996Z,21.60
2018-07-17T19:37:08.204Z,21.50
2018-07-17T19:39:36.474Z,21.40
2018-07-17T19:42:04.690Z,21.30
2018-07-17T19:44:32.881Z,21.10
2018-07-17T19:47:01.066Z,21.10
2018-07-17T19:49:29.290Z,21.00
2018-07-17T19:51:58.806Z,21.00
2018-07-17T19:54:27.653Z,21.10
2018-07-17T19:56:55.904Z,21.40
2018-07-17T19:59:24.160Z,21.80
2018-07-17T20:01:52.393Z,22.20
2018-07-17T20:04:20.565Z,22.60
2018-07-17T20:06:48.762Z,22.90
2018-07-17T20:09:16.983Z,22.90
2018-07-17T20:11:45.635Z,22.90
2018-07-17T20:14:13.862Z,22.80
2018-07-17T20:16:42.015Z,22.70
2018-07-17T20:19:11.794Z,22.60
2018-07-17T20:21:39.981Z,22.50
2018-07-17T20:24:08.622Z,22.30
2018-07-17T20:26:36.817Z,22.20
2018-07-17T20:29:05.341Z,22.10
2018-07-17T20:31:33.562Z,22.00
2018-07-17T20:34:02.409Z,22.00
2018-07-17T20:36:30.595Z,21.80
2018-07-17T20:38:59.470Z,21.70
2018-07-17T20:41:27.706Z,21.70
2018-07-17T20:43:55.901Z,21.60
2018-07-17T20:46:24.082Z,21.60
2018-07-17T20:48:52.325Z,21.60
2018-07-17T20:51:20.519Z,21.60
2018-07-17T20:53:48.734Z,21.60
2018-07-17T20:56:17.437Z,21.60
2018-07-17T20:58:45.635Z,21.60
2018-07-17T21:01:13.718Z,21.60
2018-07-17T21:03:41.965Z,21.50
2018-07-17T21:06:10.247Z,21.40
2018-07-17T21:08:38.450Z,21.40
2018-07-17T21:11:06.695Z,21.20
2018-07-17T21:13:34.897Z,21.20
2018-07-17T21:16:03.105Z,21.10
2018-07-17T21:18:31.261Z,21.10
2018-07-17T21:20:59.461Z,21.00
2018-07-17T21:23:27.682Z,20.90
2018-07-17T21:25:55.842Z,20.80
2018-07-17T21:28:24.039Z,20.70
2018-07-17T21:30:52.311Z,20.50
2018-07-17T21:33:20.522Z,20.40
2018-07-17T21:35:48.728Z,20.30
2018-07-17T21:38:16.915Z,20.10
2018-07-17T21:40:45.878Z,20.10
2018-07-17T21:43:14.761Z,19.90
2018-07-17T21:48:10.842Z,20.00
2018-07-17T21:50:39.012Z,20.00
2018-07-17T21:53:07.182Z,20.00
2018-07-17T21:55:35.613Z,20.00
2018-07-17T21:58:03.898Z,20.00
2018-07-17T22:00:33.038Z,20.00
2018-07-17T22:03:01.663Z,20.00
2018-07-17T22:05:29.857Z,19.90
2018-07-17T22:07:58.028Z,19.90
2018-07-17T22:10:26.186Z,19.80
2018-07-17T22:12:54.365Z,19.60
2018-07-17T22:15:22.548Z,19.40
2018-07-17T22:17:51.006Z,19.20
2018-07-17T22:20:19.182Z,19.00
2018-07-17T22:22:47.357Z,18.80
2018-07-17T22:25:15.534Z,18.60
2018-07-17T22:27:43.680Z,18.40
2018-07-17T22:30:11.875Z,18.20
2018-07-17T22:32:40.065Z,18.10
2018-07-17T22:35:08.226Z,18.00
2018-07-17T22:37:37.350Z,17.90
2018-07-17T22:40:05.822Z,17.80
2018-07-17T22:42:34.006Z,17.80
2018-07-17T22:45:02.207Z,17.80
2018-07-17T22:47:30.362Z,17.80
2018-07-17T22:49:58.529Z,17.90
2018-07-17T22:52:26.729Z,18.00
2018-07-17T22:54:55.058Z,18.10
2018-07-17T22:57:23.245Z,18.20
2018-07-17T22:59:51.402Z,18.30
2018-07-17T23:02:19.545Z,18.20
2018-07-17T23:04:47.777Z,18.10
2018-07-17T23:07:15.942Z,17.90
2018-07-17T23:09:44.231Z,17.80
2018-07-17T23:12:12.704Z,17.70
2018-07-17T23:14:40.878Z,17.50
2018-07-17T23:17:09.109Z,17.40
2018-07-17T23:19:37.285Z,17.30
2018-07-17T23:22:05.685Z,17.10
2018-07-17T23:24:34.551Z,17.10
2018-07-17T23:27:02.725Z,17.10
2018-07-17T23:29:30.891Z,17.10
2018-07-17T23:31:59.072Z,17.00
2018-07-17T23:34:27.270Z,16.90
2018-07-17T23:36:55.453Z,16.80
2018-07-17T23:39:23.617Z,16.80
2018-07-17T23:41:51.801Z,16.90
2018-07-17T23:44:19.992Z,16.90
2018-07-17T23:46:48.211Z,16.90
2018-07-17T23:49:22.649Z,16.90
2018-07-17T23:51:50.820Z,16.80
2018-07-17T23:54:18.999Z,16.90
2018-07-17T23:56:47.415Z,16.90
2018-07-17T23:59:15.895Z,16.90
